sensor_id;sensor_type;location;lat;lon;timestamp;P1;durP1;ratioP1;P2;durP2;ratioP2
18286;SDS011;9269;50.838;12.094;2023-04-15T00:01:17;9.23;;;8.33;;
18286;SDS011;9269;50.838;12.094;2023-04-15T00:03:46;9.10;;;8.20;;
18286;SDS011;9269;50.838;12.094;2023-04-15T00:06:18;9.13;;;8.27;;
18286;SDS011;9269;50.838;12.094;2023-04-15T00:08:47;9.60;;;8.73;;
18286;SDS011;9269;50.838;12.094;2023-04-15T00:11:22;9.77;;;8.80;;
18286;SDS011;9269;50.838;12.094;2023-04-15T00:13:51;9.67;;;8.73;;
18286;SDS011;9269;50.838;12.094;2023-04-15T00:16:37;9.37;;;8.47;;
18286;SDS011;9269;50.838;12.094;2023-04-15T00:19:06;8.80;;;8.00;;
18286;SDS011;9269;50.838;12.094;2023-04-15T00:21:36;9.33;;;8.53;;
18286;SDS011;9269;50.838;12.094;2023-04-15T00:24:04;9.73;;;8.83;;
18286;SDS011;9269;50.838;12.094;2023-04-15T00:26:34;9.47;;;8.57;;
18286;SDS011;9269;50.838;12.094;2023-04-15T00:29:02;10.20;;;9.30;;
18286;SDS011;9269;50.838;12.094;2023-04-15T00:31:31;10.87;;;9.77;;
18286;SDS011;9269;50.838;12.094;2023-04-15T00:33:59;9.50;;;8.60;;
18286;SDS011;9269;50.838;12.094;2023-04-15T00:36:28;9.80;;;8.90;;
18286;SDS011;9269;50.838;12.094;2023-04-15T00:38:57;9.33;;;8.43;;
18286;SDS011;9269;50.838;12.094;2023-04-15T00:41:26;9.03;;;8.23;;
18286;SDS011;9269;50.838;12.094;2023-04-15T00:43:56;9.47;;;8.53;;
18286;SDS011;9269;50.838;12.094;2023-04-15T00:46:25;9.30;;;8.50;;
18286;SDS011;9269;50.838;12.094;2023-04-15T00:48:55;9.30;;;8.33;;
18286;SDS011;9269;50.838;12.094;2023-04-15T00:51:24;9.10;;;8.20;;
18286;SDS011;9269;50.838;12.094;2023-04-15T00:53:54;8.43;;;7.63;;
18286;SDS011;9269;50.838;12.094;2023-04-15T00:56:22;10.60;;;9.60;;
18286;SDS011;9269;50.838;12.094;2023-04-15T00:58:51;10.37;;;9.27;;
18286;SDS011;9269;50.838;12.094;2023-04-15T01:01:21;11.33;;;10.23;;
18286;SDS011;9269;50.838;12.094;2023-04-15T01:03:52;12.03;;;10.83;;
18286;SDS011;9269;50.838;12.094;2023-04-15T01:06:22;11.13;;;10.07;;
18286;SDS011;9269;50.838;12.094;2023-04-15T01:08:51;11.10;;;10.00;;
18286;SDS011;9269;50.838;12.094;2023-04-15T01:11:20;10.90;;;9.80;;
18286;SDS011;9269;50.838;12.094;2023-04-15T01:13:50;11.67;;;10.50;;
18286;SDS011;9269;50.838;12.094;2023-04-15T01:16:19;12.80;;;11.60;;
18286;SDS011;9269;50.838;12.094;2023-04-15T01:18:49;12.07;;;10.97;;
18286;SDS011;9269;50.838;12.094;2023-04-15T01:21:17;12.77;;;11.47;;
18286;SDS011;9269;50.838;12.094;2023-04-15T01:23:47;12.97;;;11.67;;
18286;SDS011;9269;50.838;12.094;2023-04-15T01:26:19;11.43;;;10.33;;
18286;SDS011;9269;50.838;12.094;2023-04-15T01:28:49;10.27;;;9.37;;
18286;SDS011;9269;50.838;12.094;2023-04-15T01:31:17;10.23;;;9.30;;
18286;SDS011;9269;50.838;12.094;2023-04-15T01:33:46;9.73;;;8.83;;
18286;SDS011;9269;50.838;12.094;2023-04-15T01:36:14;8.57;;;7.77;;
18286;SDS011;9269;50.838;12.094;2023-04-15T01:38:42;9.30;;;8.40;;
18286;SDS011;9269;50.838;12.094;2023-04-15T01:41:12;7.80;;;7.00;;
18286;SDS011;9269;50.838;12.094;2023-04-15T01:43:41;8.90;;;8.10;;
18286;SDS011;9269;50.838;12.094;2023-04-15T01:46:10;8.07;;;7.27;;
18286;SDS011;9269;50.838;12.094;2023-04-15T01:48:38;7.63;;;6.93;;
18286;SDS011;9269;50.838;12.094;2023-04-15T01:51:07;7.43;;;6.73;;
18286;SDS011;9269;50.838;12.094;2023-04-15T01:53:36;7.43;;;6.83;;
18286;SDS011;9269;50.838;12.094;2023-04-15T01:56:05;7.73;;;7.03;;
18286;SDS011;9269;50.838;12.094;2023-04-15T01:58:33;7.30;;;6.60;;
18286;SDS011;9269;50.838;12.094;2023-04-15T02:01:03;7.37;;;6.67;;
18286;SDS011;9269;50.838;12.094;2023-04-15T02:03:32;7.53;;;6.83;;
18286;SDS011;9269;50.838;12.094;2023-04-15T02:06:02;7.73;;;7.03;;
18286;SDS011;9269;50.838;12.094;2023-04-15T02:08:31;7.00;;;6.40;;
18286;SDS011;9269;50.838;12.094;2023-04-15T02:11:00;7.20;;;6.60;;
18286;SDS011;9269;50.838;12.094;2023-04-15T02:13:29;7.70;;;7.00;;
18286;SDS011;9269;50.838;12.094;2023-04-15T02:15:58;8.67;;;7.87;;
18286;SDS011;9269;50.838;12.094;2023-04-15T02:18:28;9.40;;;8.60;;
18286;SDS011;9269;50.838;12.094;2023-04-15T02:20:58;8.80;;;8.00;;
18286;SDS011;9269;50.838;12.094;2023-04-15T02:23:27;8.17;;;7.37;;
18286;SDS011;9269;50.838;12.094;2023-04-15T02:25:56;8.10;;;7.40;;
18286;SDS011;9269;50.838;12.094;2023-04-15T02:28:25;7.93;;;7.23;;
18286;SDS011;9269;50.838;12.094;2023-04-15T02:30:54;7.47;;;6.87;;
18286;SDS011;9269;50.838;12.094;2023-04-15T02:33:25;6.93;;;6.30;;
18286;SDS011;9269;50.838;12.094;2023-04-15T02:35:54;6.57;;;5.97;;
18286;SDS011;9269;50.838;12.094;2023-04-15T02:38:24;6.40;;;5.80;;
18286;SDS011;9269;50.838;12.094;2023-04-15T02:40:52;5.93;;;5.43;;
18286;SDS011;9269;50.838;12.094;2023-04-15T02:43:21;5.53;;;5.03;;
18286;SDS011;9269;50.838;12.094;2023-04-15T02:45:49;5.43;;;4.93;;
18286;SDS011;9269;50.838;12.094;2023-04-15T02:48:18;6.07;;;5.57;;
18286;SDS011;9269;50.838;12.094;2023-04-15T02:50:46;5.53;;;5.03;;
18286;SDS011;9269;50.838;12.094;2023-04-15T02:53:16;5.57;;;5.07;;
18286;SDS011;9269;50.838;12.094;2023-04-15T02:55:45;5.47;;;4.97;;
18286;SDS011;9269;50.838;12.094;2023-04-15T02:58:14;4.77;;;4.27;;
18286;SDS011;9269;50.838;12.094;2023-04-15T03:00:42;5.43;;;4.93;;
18286;SDS011;9269;50.838;12.094;2023-04-15T03:03:11;4.97;;;4.57;;
18286;SDS011;9269;50.838;12.094;2023-04-15T03:05:40;5.00;;;4.50;;
18286;SDS011;9269;50.838;12.094;2023-04-15T03:08:09;5.57;;;5.07;;
18286;SDS011;9269;50.838;12.094;2023-04-15T03:10:38;4.63;;;4.27;;
18286;SDS011;9269;50.838;12.094;2023-04-15T03:13:07;5.87;;;5.37;;
18286;SDS011;9269;50.838;12.094;2023-04-15T03:15:35;5.23;;;4.77;;
18286;SDS011;9269;50.838;12.094;2023-04-15T03:18:04;4.93;;;4.53;;
18286;SDS011;9269;50.838;12.094;2023-04-15T03:20:32;5.30;;;4.87;;
18286;SDS011;9269;50.838;12.094;2023-04-15T03:23:02;5.53;;;5.03;;
18286;SDS011;9269;50.838;12.094;2023-04-15T03:25:30;5.20;;;4.70;;
18286;SDS011;9269;50.838;12.094;2023-04-15T03:28:00;4.60;;;4.20;;
18286;SDS011;9269;50.838;12.094;2023-04-15T03:30:28;4.70;;;4.30;;
18286;SDS011;9269;50.838;12.094;2023-04-15T03:32:56;5.20;;;4.70;;
18286;SDS011;9269;50.838;12.094;2023-04-15T03:35:25;5.77;;;4.60;;
18286;SDS011;9269;50.838;12.094;2023-04-15T03:37:53;4.93;;;4.53;;
18286;SDS011;9269;50.838;12.094;2023-04-15T03:40:22;5.10;;;4.70;;
18286;SDS011;9269;50.838;12.094;2023-04-15T03:42:51;4.80;;;4.40;;
18286;SDS011;9269;50.838;12.094;2023-04-15T03:45:21;5.03;;;4.60;;
18286;SDS011;9269;50.838;12.094;2023-04-15T03:47:50;5.00;;;4.57;;
18286;SDS011;9269;50.838;12.094;2023-04-15T03:50:19;5.20;;;4.80;;
18286;SDS011;9269;50.838;12.094;2023-04-15T03:52:48;4.70;;;4.30;;
18286;SDS011;9269;50.838;12.094;2023-04-15T03:55:16;4.90;;;4.50;;
18286;SDS011;9269;50.838;12.094;2023-04-15T03:57:46;4.90;;;4.50;;
18286;SDS011;9269;50.838;12.094;2023-04-15T04:00:15;5.00;;;4.50;;
18286;SDS011;9269;50.838;12.094;2023-04-15T04:02:45;5.07;;;4.57;;
18286;SDS011;9269;50.838;12.094;2023-04-15T04:05:14;4.83;;;4.43;;
18286;SDS011;9269;50.838;12.094;2023-04-15T04:07:42;5.00;;;4.50;;
18286;SDS011;9269;50.838;12.094;2023-04-15T04:10:11;5.57;;;4.27;;
18286;SDS011;9269;50.838;12.094;2023-04-15T04:12:40;4.90;;;4.50;;
18286;SDS011;9269;50.838;12.094;2023-04-15T04:15:08;4.33;;;3.93;;
18286;SDS011;9269;50.838;12.094;2023-04-15T04:17:38;4.07;;;3.67;;
18286;SDS011;9269;50.838;12.094;2023-04-15T04:20:08;4.33;;;3.93;;
18286;SDS011;9269;50.838;12.094;2023-04-15T04:22:37;4.20;;;3.80;;
18286;SDS011;9269;50.838;12.094;2023-04-15T04:25:07;4.20;;;3.90;;
18286;SDS011;9269;50.838;12.094;2023-04-15T04:27:37;4.67;;;4.27;;
18286;SDS011;9269;50.838;12.094;2023-04-15T04:30:06;4.30;;;3.90;;
18286;SDS011;9269;50.838;12.094;2023-04-15T04:32:35;4.37;;;3.97;;
18286;SDS011;9269;50.838;12.094;2023-04-15T04:35:03;5.07;;;4.00;;
18286;SDS011;9269;50.838;12.094;2023-04-15T04:37:34;5.17;;;4.33;;
18286;SDS011;9269;50.838;12.094;2023-04-15T04:40:02;4.70;;;4.30;;
18286;SDS011;9269;50.838;12.094;2023-04-15T04:42:31;3.80;;;3.50;;
18286;SDS011;9269;50.838;12.094;2023-04-15T04:45:00;4.33;;;3.93;;
18286;SDS011;9269;50.838;12.094;2023-04-15T04:47:28;4.50;;;4.10;;
18286;SDS011;9269;50.838;12.094;2023-04-15T04:49:57;4.20;;;3.73;;
18286;SDS011;9269;50.838;12.094;2023-04-15T04:52:26;4.43;;;4.13;;
18286;SDS011;9269;50.838;12.094;2023-04-15T04:54:55;4.10;;;3.70;;
18286;SDS011;9269;50.838;12.094;2023-04-15T04:57:24;3.77;;;3.47;;
18286;SDS011;9269;50.838;12.094;2023-04-15T04:59:52;4.10;;;3.70;;
18286;SDS011;9269;50.838;12.094;2023-04-15T05:02:20;3.50;;;3.20;;
18286;SDS011;9269;50.838;12.094;2023-04-15T05:04:49;3.47;;;3.17;;
18286;SDS011;9269;50.838;12.094;2023-04-15T05:07:20;3.80;;;3.50;;
18286;SDS011;9269;50.838;12.094;2023-04-15T05:09:48;3.60;;;3.30;;
18286;SDS011;9269;50.838;12.094;2023-04-15T05:12:18;3.50;;;3.20;;
18286;SDS011;9269;50.838;12.094;2023-04-15T05:14:47;3.40;;;3.10;;
18286;SDS011;9269;50.838;12.094;2023-04-15T05:17:16;3.57;;;3.27;;
18286;SDS011;9269;50.838;12.094;2023-04-15T05:19:44;4.17;;;3.77;;
18286;SDS011;9269;50.838;12.094;2023-04-15T05:22:12;4.50;;;4.10;;
18286;SDS011;9269;50.838;12.094;2023-04-15T05:24:41;4.30;;;3.90;;
18286;SDS011;9269;50.838;12.094;2023-04-15T05:27:09;4.37;;;3.97;;
18286;SDS011;9269;50.838;12.094;2023-04-15T05:29:38;4.73;;;4.33;;
18286;SDS011;9269;50.838;12.094;2023-04-15T05:32:07;4.90;;;4.40;;
18286;SDS011;9269;50.838;12.094;2023-04-15T05:34:35;4.63;;;4.23;;
18286;SDS011;9269;50.838;12.094;2023-04-15T05:37:04;5.50;;;4.43;;
18286;SDS011;9269;50.838;12.094;2023-04-15T05:39:32;4.90;;;4.50;;
18286;SDS011;9269;50.838;12.094;2023-04-15T05:42:01;5.50;;;4.83;;
18286;SDS011;9269;50.838;12.094;2023-04-15T05:44:31;4.60;;;4.23;;
18286;SDS011;9269;50.838;12.094;2023-04-15T05:47:01;4.90;;;4.50;;
18286;SDS011;9269;50.838;12.094;2023-04-15T05:49:30;4.83;;;4.43;;
18286;SDS011;9269;50.838;12.094;2023-04-15T05:51:58;4.80;;;4.33;;
18286;SDS011;9269;50.838;12.094;2023-04-15T05:54:27;4.80;;;4.40;;
18286;SDS011;9269;50.838;12.094;2023-04-15T05:56:56;4.67;;;4.27;;
18286;SDS011;9269;50.838;12.094;2023-04-15T05:59:24;4.97;;;4.57;;
18286;SDS011;9269;50.838;12.094;2023-04-15T06:01:54;4.67;;;4.27;;
18286;SDS011;9269;50.838;12.094;2023-04-15T06:04:24;4.37;;;3.97;;
18286;SDS011;9269;50.838;12.094;2023-04-15T06:06:53;4.97;;;4.57;;
18286;SDS011;9269;50.838;12.094;2023-04-15T06:09:22;4.40;;;4.00;;
18286;SDS011;9269;50.838;12.094;2023-04-15T06:11:50;4.47;;;4.07;;
18286;SDS011;9269;50.838;12.094;2023-04-15T06:14:18;4.57;;;4.17;;
18286;SDS011;9269;50.838;12.094;2023-04-15T06:16:47;4.47;;;4.07;;
18286;SDS011;9269;50.838;12.094;2023-04-15T06:19:15;4.67;;;4.27;;
18286;SDS011;9269;50.838;12.094;2023-04-15T06:21:45;4.60;;;4.20;;
18286;SDS011;9269;50.838;12.094;2023-04-15T06:24:14;4.30;;;4.00;;
18286;SDS011;9269;50.838;12.094;2023-04-15T06:26:42;4.60;;;4.20;;
18286;SDS011;9269;50.838;12.094;2023-04-15T06:29:10;4.00;;;3.70;;
18286;SDS011;9269;50.838;12.094;2023-04-15T06:31:39;4.00;;;3.63;;
18286;SDS011;9269;50.838;12.094;2023-04-15T06:34:07;4.13;;;3.57;;
18286;SDS011;9269;50.838;12.094;2023-04-15T06:36:37;3.80;;;3.50;;
18286;SDS011;9269;50.838;12.094;2023-04-15T06:39:06;3.73;;;3.43;;
18286;SDS011;9269;50.838;12.094;2023-04-15T06:41:34;3.77;;;3.47;;
18286;SDS011;9269;50.838;12.094;2023-04-15T06:44:03;3.57;;;3.17;;
18286;SDS011;9269;50.838;12.094;2023-04-15T06:46:32;3.17;;;2.93;;
18286;SDS011;9269;50.838;12.094;2023-04-15T06:49:00;3.53;;;3.23;;
18286;SDS011;9269;50.838;12.094;2023-04-15T06:51:29;2.80;;;2.60;;
18286;SDS011;9269;50.838;12.094;2023-04-15T06:53:58;3.40;;;3.10;;
18286;SDS011;9269;50.838;12.094;2023-04-15T06:56:28;3.77;;;3.47;;
18286;SDS011;9269;50.838;12.094;2023-04-15T06:58:57;3.13;;;2.90;;
18286;SDS011;9269;50.838;12.094;2023-04-15T07:01:26;3.10;;;2.90;;
18286;SDS011;9269;50.838;12.094;2023-04-15T07:03:54;3.30;;;3.00;;
18286;SDS011;9269;50.838;12.094;2023-04-15T07:06:23;3.20;;;2.90;;
18286;SDS011;9269;50.838;12.094;2023-04-15T07:08:51;3.10;;;2.90;;
18286;SDS011;9269;50.838;12.094;2023-04-15T07:11:21;2.73;;;2.53;;
18286;SDS011;9269;50.838;12.094;2023-04-15T07:13:51;2.60;;;2.40;;
18286;SDS011;9269;50.838;12.094;2023-04-15T07:16:21;3.40;;;3.10;;
18286;SDS011;9269;50.838;12.094;2023-04-15T07:18:49;3.30;;;2.83;;
18286;SDS011;9269;50.838;12.094;2023-04-15T07:21:18;2.70;;;2.50;;
18286;SDS011;9269;50.838;12.094;2023-04-15T07:23:47;7.27;;;5.67;;
18286;SDS011;9269;50.838;12.094;2023-04-15T07:26:15;5.10;;;3.40;;
18286;SDS011;9269;50.838;12.094;2023-04-15T07:28:44;3.50;;;3.20;;
18286;SDS011;9269;50.838;12.094;2023-04-15T07:31:14;3.60;;;3.30;;
18286;SDS011;9269;50.838;12.094;2023-04-15T07:33:43;3.93;;;3.53;;
18286;SDS011;9269;50.838;12.094;2023-04-15T07:36:12;3.37;;;3.07;;
18286;SDS011;9269;50.838;12.094;2023-04-15T07:38:41;2.90;;;2.70;;
18286;SDS011;9269;50.838;12.094;2023-04-15T07:41:09;4.60;;;3.30;;
18286;SDS011;9269;50.838;12.094;2023-04-15T07:43:39;3.50;;;3.17;;
18286;SDS011;9269;50.838;12.094;2023-04-15T07:46:07;2.77;;;2.57;;
18286;SDS011;9269;50.838;12.094;2023-04-15T07:48:37;2.73;;;2.53;;
18286;SDS011;9269;50.838;12.094;2023-04-15T07:51:05;5.93;;;4.73;;
18286;SDS011;9269;50.838;12.094;2023-04-15T07:53:34;4.27;;;3.87;;
18286;SDS011;9269;50.838;12.094;2023-04-15T07:56:03;4.83;;;3.70;;
18286;SDS011;9269;50.838;12.094;2023-04-15T07:58:32;3.30;;;3.00;;
18286;SDS011;9269;50.838;12.094;2023-04-15T08:01:01;3.50;;;3.20;;
18286;SDS011;9269;50.838;12.094;2023-04-15T08:03:31;14.60;;;11.57;;
18286;SDS011;9269;50.838;12.094;2023-04-15T08:06:01;4.10;;;3.73;;
18286;SDS011;9269;50.838;12.094;2023-04-15T08:08:30;4.33;;;3.93;;
18286;SDS011;9269;50.838;12.094;2023-04-15T08:10:59;4.83;;;4.33;;
18286;SDS011;9269;50.838;12.094;2023-04-15T08:13:28;4.77;;;3.83;;
18286;SDS011;9269;50.838;12.094;2023-04-15T08:18:46;4.67;;;4.27;;
18286;SDS011;9269;50.838;12.094;2023-04-15T08:21:17;4.20;;;3.73;;
18286;SDS011;9269;50.838;12.094;2023-04-15T08:23:47;5.27;;;3.03;;
18286;SDS011;9269;50.838;12.094;2023-04-15T08:26:19;3.47;;;3.17;;
18286;SDS011;9269;50.838;12.094;2023-04-15T08:28:48;2.90;;;2.70;;
18286;SDS011;9269;50.838;12.094;2023-04-15T08:31:17;3.83;;;3.53;;
18286;SDS011;9269;50.838;12.094;2023-04-15T08:33:46;3.13;;;2.93;;
18286;SDS011;9269;50.838;12.094;2023-04-15T08:36:19;3.30;;;2.87;;
18286;SDS011;9269;50.838;12.094;2023-04-15T08:38:48;4.33;;;3.93;;
18286;SDS011;9269;50.838;12.094;2023-04-15T08:41:18;3.30;;;2.90;;
18286;SDS011;9269;50.838;12.094;2023-04-15T08:43:51;2.30;;;2.10;;
18286;SDS011;9269;50.838;12.094;2023-04-15T08:46:22;2.30;;;2.10;;
18286;SDS011;9269;50.838;12.094;2023-04-15T08:48:51;2.53;;;2.33;;
18286;SDS011;9269;50.838;12.094;2023-04-15T08:51:26;2.07;;;1.97;;
18286;SDS011;9269;50.838;12.094;2023-04-15T08:53:55;3.83;;;2.10;;
18286;SDS011;9269;50.838;12.094;2023-04-15T08:56:24;2.33;;;2.13;;
18286;SDS011;9269;50.838;12.094;2023-04-15T08:58:53;2.30;;;2.10;;
18286;SDS011;9269;50.838;12.094;2023-04-15T09:01:22;2.27;;;2.07;;
18286;SDS011;9269;50.838;12.094;2023-04-15T09:03:51;1.70;;;1.60;;
18286;SDS011;9269;50.838;12.094;2023-04-15T09:06:21;2.27;;;2.13;;
18286;SDS011;9269;50.838;12.094;2023-04-15T09:08:53;1.77;;;1.67;;
18286;SDS011;9269;50.838;12.094;2023-04-15T09:11:23;1.63;;;1.53;;
18286;SDS011;9269;50.838;12.094;2023-04-15T09:13:52;2.00;;;1.90;;
18286;SDS011;9269;50.838;12.094;2023-04-15T09:16:21;2.13;;;1.93;;
18286;SDS011;9269;50.838;12.094;2023-04-15T09:18:50;2.47;;;2.27;;
18286;SDS011;9269;50.838;12.094;2023-04-15T09:21:18;1.97;;;1.80;;
18286;SDS011;9269;50.838;12.094;2023-04-15T09:23:55;1.70;;;1.60;;
18286;SDS011;9269;50.838;12.094;2023-04-15T09:26:29;1.80;;;1.70;;
18286;SDS011;9269;50.838;12.094;2023-04-15T09:29:05;2.00;;;1.90;;
18286;SDS011;9269;50.838;12.094;2023-04-15T09:31:35;1.90;;;1.70;;
18286;SDS011;9269;50.838;12.094;2023-04-15T09:34:04;1.73;;;1.63;;
18286;SDS011;9269;50.838;12.094;2023-04-15T09:36:51;1.60;;;1.50;;
18286;SDS011;9269;50.838;12.094;2023-04-15T09:39:45;1.57;;;1.47;;
18286;SDS011;9269;50.838;12.094;2023-04-15T09:42:24;1.70;;;1.40;;
18286;SDS011;9269;50.838;12.094;2023-04-15T09:44:54;2.70;;;2.00;;
18286;SDS011;9269;50.838;12.094;2023-04-15T09:47:26;4.43;;;4.03;;
18286;SDS011;9269;50.838;12.094;2023-04-15T09:49:59;4.77;;;3.50;;
18286;SDS011;9269;50.838;12.094;2023-04-15T09:52:30;5.73;;;5.10;;
18286;SDS011;9269;50.838;12.094;2023-04-15T09:55:00;5.73;;;5.03;;
18286;SDS011;9269;50.838;12.094;2023-04-15T09:57:33;3.40;;;3.10;;
18286;SDS011;9269;50.838;12.094;2023-04-15T10:00:02;1.90;;;1.80;;
18286;SDS011;9269;50.838;12.094;2023-04-15T10:02:32;6.57;;;5.30;;
18286;SDS011;9269;50.838;12.094;2023-04-15T10:05:02;12.10;;;9.83;;
18286;SDS011;9269;50.838;12.094;2023-04-15T10:07:33;13.33;;;10.57;;
18286;SDS011;9269;50.838;12.094;2023-04-15T10:10:04;2.30;;;2.10;;
18286;SDS011;9269;50.838;12.094;2023-04-15T10:12:34;1.60;;;1.50;;
18286;SDS011;9269;50.838;12.094;2023-04-15T10:15:05;2.43;;;2.23;;
18286;SDS011;9269;50.838;12.094;2023-04-15T10:17:38;1.90;;;1.80;;
18286;SDS011;9269;50.838;12.094;2023-04-15T10:20:10;1.80;;;1.70;;
18286;SDS011;9269;50.838;12.094;2023-04-15T10:22:40;1.97;;;1.70;;
18286;SDS011;9269;50.838;12.094;2023-04-15T10:25:11;1.23;;;1.13;;
18286;SDS011;9269;50.838;12.094;2023-04-15T10:27:42;1.30;;;1.10;;
18286;SDS011;9269;50.838;12.094;2023-04-15T10:30:10;1.43;;;1.10;;
18286;SDS011;9269;50.838;12.094;2023-04-15T10:33:04;2.13;;;1.20;;
18286;SDS011;9269;50.838;12.094;2023-04-15T10:35:35;1.17;;;1.03;;
18286;SDS011;9269;50.838;12.094;2023-04-15T10:41:13;0.73;;;0.73;;
18286;SDS011;9269;50.838;12.094;2023-04-15T10:43:48;0.97;;;0.97;;
18286;SDS011;9269;50.838;12.094;2023-04-15T10:46:33;1.20;;;1.10;;
18286;SDS011;9269;50.838;12.094;2023-04-15T10:49:07;1.70;;;0.90;;
18286;SDS011;9269;50.838;12.094;2023-04-15T10:51:37;0.73;;;0.73;;
18286;SDS011;9269;50.838;12.094;2023-04-15T10:54:08;1.00;;;1.00;;
18286;SDS011;9269;50.838;12.094;2023-04-15T10:56:42;1.07;;;0.97;;
18286;SDS011;9269;50.838;12.094;2023-04-15T10:59:11;0.90;;;0.90;;
18286;SDS011;9269;50.838;12.094;2023-04-15T11:01:49;1.40;;;1.30;;
18286;SDS011;9269;50.838;12.094;2023-04-15T11:07:32;1.73;;;1.50;;
18286;SDS011;9269;50.838;12.094;2023-04-15T11:10:02;1.10;;;1.10;;
18286;SDS011;9269;50.838;12.094;2023-04-15T11:12:36;1.00;;;0.90;;
18286;SDS011;9269;50.838;12.094;2023-04-15T11:18:07;1.10;;;1.10;;
18286;SDS011;9269;50.838;12.094;2023-04-15T11:20:37;1.40;;;1.00;;
18286;SDS011;9269;50.838;12.094;2023-04-15T11:23:09;1.17;;;0.90;;
18286;SDS011;9269;50.838;12.094;2023-04-15T11:25:41;1.13;;;1.03;;
18286;SDS011;9269;50.838;12.094;2023-04-15T11:28:12;0.83;;;0.83;;
18286;SDS011;9269;50.838;12.094;2023-04-15T11:30:41;0.90;;;0.90;;
18286;SDS011;9269;50.838;12.094;2023-04-15T11:33:10;1.07;;;1.03;;
18286;SDS011;9269;50.838;12.094;2023-04-15T11:35:40;1.20;;;1.10;;
18286;SDS011;9269;50.838;12.094;2023-04-15T11:38:10;1.03;;;1.03;;
18286;SDS011;9269;50.838;12.094;2023-04-15T11:40:41;1.03;;;1.03;;
18286;SDS011;9269;50.838;12.094;2023-04-15T11:43:14;1.00;;;1.00;;
18286;SDS011;9269;50.838;12.094;2023-04-15T11:45:47;1.30;;;1.20;;
18286;SDS011;9269;50.838;12.094;2023-04-15T11:48:18;1.43;;;1.33;;
18286;SDS011;9269;50.838;12.094;2023-04-15T11:50:52;1.90;;;1.60;;
18286;SDS011;9269;50.838;12.094;2023-04-15T11:53:23;1.10;;;1.10;;
18286;SDS011;9269;50.838;12.094;2023-04-15T11:56:03;1.23;;;1.13;;
18286;SDS011;9269;50.838;12.094;2023-04-15T11:58:34;1.00;;;1.00;;
18286;SDS011;9269;50.838;12.094;2023-04-15T12:01:04;1.17;;;1.13;;
18286;SDS011;9269;50.838;12.094;2023-04-15T12:03:50;1.23;;;1.17;;
18286;SDS011;9269;50.838;12.094;2023-04-15T12:06:19;1.20;;;1.10;;
18286;SDS011;9269;50.838;12.094;2023-04-15T12:09:00;1.40;;;1.30;;
18286;SDS011;9269;50.838;12.094;2023-04-15T12:11:38;1.60;;;1.50;;
18286;SDS011;9269;50.838;12.094;2023-04-15T12:14:15;1.30;;;1.20;;
18286;SDS011;9269;50.838;12.094;2023-04-15T12:16:49;1.50;;;1.40;;
18286;SDS011;9269;50.838;12.094;2023-04-15T12:19:28;1.77;;;1.67;;
18286;SDS011;9269;50.838;12.094;2023-04-15T12:21:58;1.50;;;1.40;;
18286;SDS011;9269;50.838;12.094;2023-04-15T12:24:30;2.13;;;1.93;;
18286;SDS011;9269;50.838;12.094;2023-04-15T12:27:00;1.90;;;1.80;;
18286;SDS011;9269;50.838;12.094;2023-04-15T12:29:54;2.43;;;2.23;;
18286;SDS011;9269;50.838;12.094;2023-04-15T12:32:33;1.80;;;1.60;;
18286;SDS011;9269;50.838;12.094;2023-04-15T12:35:02;1.63;;;1.53;;
18286;SDS011;9269;50.838;12.094;2023-04-15T12:37:31;1.60;;;1.50;;
18286;SDS011;9269;50.838;12.094;2023-04-15T12:39:59;1.43;;;1.37;;
18286;SDS011;9269;50.838;12.094;2023-04-15T12:42:28;1.30;;;1.20;;
18286;SDS011;9269;50.838;12.094;2023-04-15T12:44:58;1.40;;;1.30;;
18286;SDS011;9269;50.838;12.094;2023-04-15T12:47:26;1.80;;;1.70;;
18286;SDS011;9269;50.838;12.094;2023-04-15T12:49:55;1.70;;;1.60;;
18286;SDS011;9269;50.838;12.094;2023-04-15T12:52:23;1.67;;;1.50;;
18286;SDS011;9269;50.838;12.094;2023-04-15T12:54:52;2.70;;;1.63;;
18286;SDS011;9269;50.838;12.094;2023-04-15T12:57:20;1.50;;;1.40;;
18286;SDS011;9269;50.838;12.094;2023-04-15T12:59:49;1.93;;;1.50;;
18286;SDS011;9269;50.838;12.094;2023-04-15T13:02:38;2.37;;;1.87;;
18286;SDS011;9269;50.838;12.094;2023-04-15T13:05:07;1.50;;;1.40;;
18286;SDS011;9269;50.838;12.094;2023-04-15T13:07:35;1.77;;;1.67;;
18286;SDS011;9269;50.838;12.094;2023-04-15T13:10:05;2.83;;;1.63;;
18286;SDS011;9269;50.838;12.094;2023-04-15T13:12:34;1.77;;;1.67;;
18286;SDS011;9269;50.838;12.094;2023-04-15T13:15:02;2.13;;;2.00;;
18286;SDS011;9269;50.838;12.094;2023-04-15T13:17:32;2.43;;;2.23;;
18286;SDS011;9269;50.838;12.094;2023-04-15T13:20:02;3.03;;;2.43;;
18286;SDS011;9269;50.838;12.094;2023-04-15T13:22:35;4.17;;;3.20;;
18286;SDS011;9269;50.838;12.094;2023-04-15T13:25:10;3.00;;;2.80;;
18286;SDS011;9269;50.838;12.094;2023-04-15T13:27:39;3.47;;;2.97;;
18286;SDS011;9269;50.838;12.094;2023-04-15T13:30:08;2.77;;;2.57;;
18286;SDS011;9269;50.838;12.094;2023-04-15T13:32:36;2.23;;;2.13;;
18286;SDS011;9269;50.838;12.094;2023-04-15T13:35:07;3.50;;;3.20;;
18286;SDS011;9269;50.838;12.094;2023-04-15T13:37:35;3.10;;;2.90;;
18286;SDS011;9269;50.838;12.094;2023-04-15T13:40:05;3.20;;;2.80;;
18286;SDS011;9269;50.838;12.094;2023-04-15T13:42:34;2.60;;;2.40;;
18286;SDS011;9269;50.838;12.094;2023-04-15T13:45:03;2.73;;;2.53;;
18286;SDS011;9269;50.838;12.094;2023-04-15T13:47:33;2.80;;;2.60;;
18286;SDS011;9269;50.838;12.094;2023-04-15T13:50:02;2.60;;;2.40;;
18286;SDS011;9269;50.838;12.094;2023-04-15T13:52:33;2.60;;;2.40;;
18286;SDS011;9269;50.838;12.094;2023-04-15T13:55:01;2.90;;;2.70;;
18286;SDS011;9269;50.838;12.094;2023-04-15T13:57:52;3.30;;;3.00;;
18286;SDS011;9269;50.838;12.094;2023-04-15T14:00:20;3.70;;;3.40;;
18286;SDS011;9269;50.838;12.094;2023-04-15T14:02:49;3.63;;;3.17;;
18286;SDS011;9269;50.838;12.094;2023-04-15T14:05:17;3.43;;;3.13;;
18286;SDS011;9269;50.838;12.094;2023-04-15T14:07:47;3.70;;;3.40;;
18286;SDS011;9269;50.838;12.094;2023-04-15T14:10:15;3.60;;;3.30;;
18286;SDS011;9269;50.838;12.094;2023-04-15T14:12:44;3.70;;;3.40;;
18286;SDS011;9269;50.838;12.094;2023-04-15T14:15:12;3.37;;;3.07;;
18286;SDS011;9269;50.838;12.094;2023-04-15T14:17:41;3.63;;;3.43;;
18286;SDS011;9269;50.838;12.094;2023-04-15T14:20:10;4.57;;;4.17;;
18286;SDS011;9269;50.838;12.094;2023-04-15T14:22:41;5.00;;;4.50;;
18286;SDS011;9269;50.838;12.094;2023-04-15T14:25:11;5.30;;;4.90;;
18286;SDS011;9269;50.838;12.094;2023-04-15T14:27:56;4.90;;;4.50;;
18286;SDS011;9269;50.838;12.094;2023-04-15T14:30:25;4.93;;;4.53;;
18286;SDS011;9269;50.838;12.094;2023-04-15T14:32:55;3.90;;;3.60;;
18286;SDS011;9269;50.838;12.094;2023-04-15T14:35:25;4.57;;;4.20;;
18286;SDS011;9269;50.838;12.094;2023-04-15T14:37:54;4.40;;;4.10;;
18286;SDS011;9269;50.838;12.094;2023-04-15T14:40:24;4.73;;;4.33;;
18286;SDS011;9269;50.838;12.094;2023-04-15T14:42:53;3.90;;;3.60;;
18286;SDS011;9269;50.838;12.094;2023-04-15T14:45:22;5.00;;;4.50;;
18286;SDS011;9269;50.838;12.094;2023-04-15T14:47:50;6.10;;;5.50;;
18286;SDS011;9269;50.838;12.094;2023-04-15T14:50:19;6.03;;;5.53;;
18286;SDS011;9269;50.838;12.094;2023-04-15T14:52:48;8.50;;;7.80;;
18286;SDS011;9269;50.838;12.094;2023-04-15T14:55:17;7.27;;;6.57;;
18286;SDS011;9269;50.838;12.094;2023-04-15T14:57:47;6.53;;;5.70;;
18286;SDS011;9269;50.838;12.094;2023-04-15T15:00:15;5.40;;;5.00;;
18286;SDS011;9269;50.838;12.094;2023-04-15T15:02:44;4.67;;;4.30;;
18286;SDS011;9269;50.838;12.094;2023-04-15T15:05:14;5.10;;;4.70;;
18286;SDS011;9269;50.838;12.094;2023-04-15T15:07:42;4.90;;;4.50;;
18286;SDS011;9269;50.838;12.094;2023-04-15T15:10:11;4.30;;;4.00;;
18286;SDS011;9269;50.838;12.094;2023-04-15T15:12:39;5.07;;;4.73;;
18286;SDS011;9269;50.838;12.094;2023-04-15T15:15:09;6.57;;;6.07;;